createdAt,value
2022-09-28T00:01:16.056Z,97288.50
2022-09-28T00:03:43.145Z,97259.13
2022-09-28T00:06:14.170Z,97256.16
2022-09-28T00:08:40.905Z,97260.59
2022-09-28T00:11:12.346Z,97226.31
2022-09-28T00:13:39.270Z,97274.75
2022-09-28T00:16:19.724Z,97259.00
2022-09-28T00:18:51.877Z,97269.81
2022-09-28T00:21:24.833Z,97285.22
2022-09-28T00:24:12.210Z,97282.94
2022-09-28T00:27:06.290Z,97289.72
2022-09-28T00:29:37.225Z,97272.81
2022-09-28T00:32:24.969Z,97292.84
2022-09-28T00:34:56.886Z,97286.56
2022-09-28T00:37:24.435Z,97263.13
2022-09-28T00:39:51.093Z,97272.31
2022-09-28T00:42:22.528Z,97237.97
2022-09-28T00:44:51.495Z,97282.19
2022-09-28T00:47:21.415Z,97238.88
2022-09-28T00:49:47.951Z,97275.53
2022-09-28T00:52:31.464Z,97275.84
2022-09-28T00:55:01.690Z,97261.97
2022-09-28T00:57:29.835Z,97272.78
2022-09-28T00:59:58.461Z,97268.72
2022-09-28T01:02:25.182Z,97257.19
2022-09-28T01:04:52.445Z,97254.53
2022-09-28T01:07:19.692Z,97220.72
2022-09-28T01:09:46.758Z,97260.47
2022-09-28T01:12:13.395Z,97266.44
2022-09-28T01:14:41.392Z,97259.16
2022-09-28T01:17:14.715Z,97270.19
2022-09-28T01:20:06.750Z,97266.31
2022-09-28T01:23:13.157Z,97259.16
2022-09-28T01:25:39.941Z,97252.97
2022-09-28T01:28:14.763Z,97245.97
2022-09-28T01:30:59.700Z,97240.34
2022-09-28T01:33:39.408Z,97206.59
2022-09-28T01:36:20.802Z,97229.44
2022-09-28T01:38:50.687Z,97223.75
2022-09-28T01:41:18.614Z,97223.44
2022-09-28T01:43:53.622Z,97223.06
2022-09-28T01:46:37.301Z,97233.53
2022-09-28T01:49:31.373Z,97226.63
2022-09-28T01:52:23.236Z,97231.63
2022-09-28T01:54:59.192Z,97253.09
2022-09-28T01:57:37.875Z,97254.22
2022-09-28T02:00:12.357Z,97267.28
2022-09-28T02:03:17.480Z,97268.03
2022-09-28T02:05:51.975Z,97270.13
2022-09-28T02:08:30.097Z,97269.28
2022-09-28T02:11:03.381Z,97293.50
2022-09-28T02:13:38.948Z,97254.38
2022-09-28T02:16:30.130Z,97291.69
2022-09-28T02:18:57.136Z,97270.38
2022-09-28T02:21:40.635Z,97283.75
2022-09-28T02:24:17.196Z,97279.28
2022-09-28T02:26:55.336Z,97284.63
2022-09-28T02:29:22.147Z,97251.50
2022-09-28T02:31:52.253Z,97282.91
2022-09-28T02:34:21.636Z,97258.31
2022-09-28T02:36:48.302Z,97256.94
2022-09-28T02:39:17.808Z,97260.41
2022-09-28T02:42:11.920Z,97288.59
2022-09-28T02:45:14.771Z,97275.28
2022-09-28T02:48:35.885Z,97279.66
2022-09-28T02:51:36.955Z,97287.66
2022-09-28T02:54:40.658Z,97292.50
2022-09-28T02:57:44.885Z,97282.47
2022-09-28T03:00:21.369Z,97276.38
2022-09-28T03:03:06.127Z,97272.00
2022-09-28T03:05:56.788Z,97288.97
2022-09-28T03:08:42.289Z,97287.63
2022-09-28T03:11:20.845Z,97281.28
2022-09-28T03:13:48.100Z,97276.44
2022-09-28T03:16:21.880Z,97286.72
2022-09-28T03:18:48.597Z,97246.00
2022-09-28T03:21:16.367Z,97280.47
2022-09-28T03:23:43.699Z,97277.72
2022-09-28T03:26:14.770Z,97305.59
2022-09-28T03:28:44.513Z,97274.28
2022-09-28T03:31:11.219Z,97268.53
2022-09-28T03:33:37.890Z,97288.47
2022-09-28T03:36:06.241Z,97284.16
2022-09-28T03:38:35.667Z,97293.09
2022-09-28T03:41:02.354Z,97281.66
2022-09-28T03:43:30.512Z,97274.69
2022-09-28T03:46:02.679Z,97278.25
2022-09-28T03:48:35.446Z,97289.94
2022-09-28T03:51:05.845Z,97289.47
2022-09-28T03:53:33.380Z,97283.00
2022-09-28T03:56:10.143Z,97246.09
2022-09-28T03:58:36.765Z,97269.97
2022-09-28T04:01:24.429Z,97296.44
2022-09-28T04:03:57.628Z,97300.34
2022-09-28T04:06:25.193Z,97306.59
2022-09-28T04:08:53.132Z,97303.88
2022-09-28T04:11:26.156Z,97297.00
2022-09-28T04:13:52.738Z,97291.81
2022-09-28T04:16:19.866Z,97284.81
2022-09-28T04:18:48.043Z,97312.47
2022-09-28T04:21:17.066Z,97311.66
2022-09-28T04:23:44.308Z,97316.72
2022-09-28T04:26:36.552Z,97321.47
2022-09-28T04:29:20.832Z,97306.31
2022-09-28T04:31:55.442Z,97306.44
2022-09-28T04:34:23.184Z,97326.88
2022-09-28T04:36:50.185Z,97325.81
2022-09-28T04:39:18.449Z,97331.72
2022-09-28T04:41:51.449Z,97341.09
2022-09-28T04:44:21.060Z,97335.88
2022-09-28T04:46:49.802Z,97339.22
2022-09-28T04:49:17.865Z,97322.97
2022-09-28T04:51:44.611Z,97320.03
2022-09-28T04:54:11.340Z,97314.72
2022-09-28T04:56:41.919Z,97329.75
2022-09-28T04:59:08.543Z,97348.75
2022-09-28T05:01:35.620Z,97335.16
2022-09-28T05:04:02.419Z,97315.31
2022-09-28T05:06:32.339Z,97331.03
2022-09-28T05:08:59.860Z,97343.19
2022-09-28T05:11:28.997Z,97342.53
2022-09-28T05:13:55.846Z,97354.09
2022-09-28T05:16:22.583Z,97317.84
2022-09-28T05:18:49.364Z,97348.97
2022-09-28T05:21:15.980Z,97346.13
2022-09-28T05:23:47.413Z,97358.06
2022-09-28T05:26:15.124Z,97342.00
2022-09-28T05:28:42.016Z,97340.03
2022-09-28T05:31:15.963Z,97365.06
2022-09-28T05:33:42.718Z,97339.72
2022-09-28T05:36:13.148Z,97363.94
2022-09-28T05:38:39.828Z,97356.75
2022-09-28T05:41:09.658Z,97370.47
2022-09-28T05:43:39.531Z,97361.69
2022-09-28T05:46:06.469Z,97362.53
2022-09-28T05:48:34.647Z,97354.66
2022-09-28T05:51:01.841Z,97382.50
2022-09-28T05:53:28.535Z,97390.81
2022-09-28T05:55:59.953Z,97388.91
2022-09-28T05:58:29.821Z,97399.00
2022-09-28T06:00:57.121Z,97388.97
2022-09-28T06:03:24.296Z,97404.19
2022-09-28T06:05:51.239Z,97408.06
2022-09-28T06:08:17.961Z,97411.75
2022-09-28T06:10:46.011Z,97418.66
2022-09-28T06:13:12.730Z,97411.56
2022-09-28T06:15:42.507Z,97399.34
2022-09-28T06:18:15.198Z,97425.44
2022-09-28T06:20:42.573Z,97407.75
2022-09-28T06:23:10.798Z,97413.28
2022-09-28T06:25:37.405Z,97410.69
2022-09-28T06:28:12.064Z,97431.81
2022-09-28T06:30:44.147Z,97440.75
2022-09-28T06:33:13.763Z,97437.78
2022-09-28T06:35:40.822Z,97426.34
2022-09-28T06:38:07.859Z,97433.94
2022-09-28T06:40:36.453Z,97441.22
2022-09-28T06:43:21.331Z,97435.22
2022-09-28T06:45:54.756Z,97413.28
2022-09-28T06:48:23.545Z,97427.66
2022-09-28T06:50:50.614Z,97430.97
2022-09-28T06:53:17.740Z,97418.78
2022-09-28T06:55:49.218Z,97407.81
2022-09-28T06:58:20.046Z,97446.31
2022-09-28T07:00:54.294Z,97418.00
2022-09-28T07:03:22.442Z,97423.25
2022-09-28T07:05:53.977Z,97456.78
2022-09-28T07:08:26.491Z,97432.09
2022-09-28T07:10:59.359Z,97448.56
2022-09-28T07:13:50.973Z,97434.81
2022-09-28T07:16:19.645Z,97429.88
2022-09-28T07:18:48.911Z,97433.75
2022-09-28T07:21:26.639Z,97424.97
2022-09-28T07:23:55.226Z,97418.38
2022-09-28T07:26:24.355Z,97465.03
2022-09-28T07:28:51.633Z,97471.63
2022-09-28T07:31:19.420Z,97454.56
2022-09-28T07:33:49.481Z,97464.72
2022-09-28T07:36:18.406Z,97472.13
2022-09-28T07:38:46.047Z,97465.31
2022-09-28T07:41:12.941Z,97460.66
2022-09-28T07:43:41.964Z,97472.44
2022-09-28T07:46:12.261Z,97477.91
2022-09-28T07:48:41.054Z,97483.13
2022-09-28T07:51:10.875Z,97468.56
2022-09-28T07:53:41.026Z,97474.31
2022-09-28T07:56:18.155Z,97465.03
2022-09-28T07:58:49.337Z,97462.31
2022-09-28T08:01:16.701Z,97463.66
2022-09-28T08:03:45.754Z,97458.16
2022-09-28T08:06:14.555Z,97455.66
2022-09-28T08:08:45.109Z,97469.34
2022-09-28T08:11:14.410Z,97441.34
2022-09-28T08:13:45.787Z,97479.81
2022-09-28T08:16:12.633Z,97474.28
2022-09-28T08:18:39.428Z,97439.31
2022-09-28T08:21:25.335Z,97481.81
2022-09-28T08:23:53.468Z,97455.38
2022-09-28T08:26:23.219Z,97443.31
2022-09-28T08:28:50.318Z,97462.41
2022-09-28T08:31:20.222Z,97452.41
2022-09-28T08:33:47.985Z,97431.88
2022-09-28T08:36:14.645Z,97439.31
2022-09-28T08:38:45.058Z,97458.06
2022-09-28T08:41:42.069Z,97466.22
2022-09-28T08:44:16.534Z,97475.94
2022-09-28T08:47:06.430Z,97473.91
2022-09-28T08:49:43.439Z,97472.72
2022-09-28T08:52:17.547Z,97463.47
2022-09-28T08:55:07.702Z,97458.25
2022-09-28T08:58:01.204Z,97460.84
2022-09-28T09:00:38.770Z,97464.03
2022-09-28T09:03:10.881Z,97441.66
2022-09-28T09:06:13.336Z,97468.56
2022-09-28T09:09:20.811Z,97472.78
2022-09-28T09:12:00.864Z,97473.22
2022-09-28T09:14:42.669Z,97471.94
2022-09-28T09:17:36.639Z,97466.25
2022-09-28T09:23:21.500Z,97460.84
2022-09-28T09:25:54.971Z,97458.44
2022-09-28T09:28:50.695Z,97464.28
2022-09-28T09:31:36.297Z,97459.03
2022-09-28T09:34:18.335Z,97461.81
2022-09-28T09:37:14.001Z,97455.91
2022-09-28T09:39:46.953Z,97452.94
2022-09-28T09:42:51.424Z,97455.94
2022-09-28T09:45:45.409Z,97454.25
2022-09-28T09:48:28.967Z,97447.56
2022-09-28T09:51:01.120Z,97457.81
2022-09-28T09:53:42.078Z,97448.47
2022-09-28T09:56:18.820Z,97433.44
2022-09-28T09:58:52.146Z,97436.38
2022-09-28T10:01:33.921Z,97398.84
2022-09-28T10:04:08.750Z,97448.56
2022-09-28T10:06:38.167Z,97440.88
2022-09-28T10:09:10.108Z,97435.31
2022-09-28T10:11:43.927Z,97432.00
2022-09-28T10:14:22.549Z,97433.88
2022-09-28T10:16:57.953Z,97428.34
2022-09-28T10:19:33.668Z,97429.28
2022-09-28T10:22:06.546Z,97418.72
2022-09-28T10:24:42.820Z,97411.06
2022-09-28T10:27:16.887Z,97416.88
2022-09-28T10:29:50.912Z,97417.16
2022-09-28T10:32:24.106Z,97415.16
2022-09-28T10:34:53.324Z,97416.41
2022-09-28T10:37:20.195Z,97417.78
2022-09-28T10:39:49.636Z,97407.13
2022-09-28T10:42:27.012Z,97416.22
2022-09-28T10:44:58.370Z,97419.69
2022-09-28T10:47:35.890Z,97399.69
2022-09-28T10:50:03.935Z,97399.25
2022-09-28T10:52:35.681Z,97408.97
2022-09-28T10:55:39.490Z,97391.25
2022-09-28T10:58:27.428Z,97407.41
2022-09-28T11:01:02.482Z,97397.41
2022-09-28T11:03:38.625Z,97390.06
2022-09-28T11:06:09.134Z,97373.69
2022-09-28T11:08:57.635Z,97385.34
2022-09-28T11:11:24.812Z,97377.09
2022-09-28T11:14:28.965Z,97388.53
2022-09-28T11:17:26.478Z,97390.44
2022-09-28T11:19:59.601Z,97382.84
2022-09-28T11:22:58.336Z,97373.47
2022-09-28T11:25:53.884Z,97371.97
2022-09-28T11:28:42.770Z,97375.25
2022-09-28T11:31:11.980Z,97365.94
2022-09-28T11:33:41.458Z,97347.97
2022-09-28T11:36:14.684Z,97368.22
2022-09-28T11:38:48.239Z,97353.03
2022-09-28T11:41:24.006Z,97368.09
2022-09-28T11:44:30.945Z,97362.59
2022-09-28T11:47:00.074Z,97370.03
2022-09-28T11:49:43.958Z,97365.63
2022-09-28T11:52:44.822Z,97364.50
2022-09-28T11:55:19.107Z,97365.56
2022-09-28T11:57:50.691Z,97359.44
2022-09-28T12:00:22.344Z,97369.72
2022-09-28T12:02:59.678Z,97363.31
2022-09-28T12:05:34.043Z,97374.09
2022-09-28T12:08:09.910Z,97375.75
2022-09-28T12:10:45.597Z,97369.34
2022-09-28T12:13:22.515Z,97376.84
2022-09-28T12:16:45.179Z,97375.63
2022-09-28T12:19:20.328Z,97374.34
2022-09-28T12:22:18.347Z,97374.44
2022-09-28T12:24:51.810Z,97358.56
2022-09-28T12:27:48.784Z,97358.69
2022-09-28T12:30:19.938Z,97345.81
2022-09-28T12:33:09.213Z,97353.13
2022-09-28T12:36:07.051Z,97353.78
2022-09-28T12:39:35.824Z,97360.59
2022-09-28T12:42:21.812Z,97351.34
2022-09-28T12:45:15.068Z,97353.44
2022-09-28T12:47:50.127Z,97338.38
2022-09-28T12:50:40.286Z,97355.00
2022-09-28T12:53:25.934Z,97347.28
2022-09-28T12:56:18.034Z,97347.63
2022-09-28T12:59:31.475Z,97344.19
2022-09-28T13:01:58.305Z,97330.41
2022-09-28T13:05:08.586Z,97320.13
2022-09-28T13:08:07.132Z,97315.81
2022-09-28T13:11:08.961Z,97328.84
2022-09-28T13:13:54.769Z,97324.88
2022-09-28T13:16:24.136Z,97316.06
2022-09-28T13:19:10.931Z,97309.03
2022-09-28T13:22:22.831Z,97315.59
2022-09-28T13:24:51.476Z,97295.88
2022-09-28T13:27:38.156Z,97308.16
2022-09-28T13:30:07.342Z,97305.09
2022-09-28T13:32:37.569Z,97288.47
2022-09-28T13:35:25.422Z,97323.91
2022-09-28T13:38:17.496Z,97309.44
2022-09-28T13:41:07.868Z,97303.25
2022-09-28T13:44:16.797Z,97308.53
2022-09-28T13:47:13.260Z,97309.00
2022-09-28T13:49:58.601Z,97305.13
2022-09-28T13:53:08.063Z,97302.28
2022-09-28T13:55:55.934Z,97304.84
2022-09-28T13:58:32.488Z,97297.59
2022-09-28T14:01:10.963Z,97304.13
2022-09-28T14:04:15.165Z,97305.78
2022-09-28T14:06:48.145Z,97296.16
2022-09-28T14:09:45.071Z,97303.31
2022-09-28T14:12:43.577Z,97306.19
2022-09-28T14:15:28.955Z,97303.75
2022-09-28T14:18:24.024Z,97305.69
2022-09-28T14:21:03.027Z,97310.00
2022-09-28T14:23:38.729Z,97315.41
2022-09-28T14:26:11.300Z,97305.78
2022-09-28T14:28:54.635Z,97309.50
2022-09-28T14:31:27.766Z,97309.78
2022-09-28T14:34:03.397Z,97309.75
2022-09-28T14:37:06.421Z,97300.31
2022-09-28T14:39:53.366Z,97307.38
2022-09-28T14:42:25.584Z,97293.22
2022-09-28T14:45:06.777Z,97308.91
2022-09-28T14:48:03.049Z,97310.59
2022-09-28T14:50:32.719Z,97303.28
2022-09-28T14:53:13.823Z,97317.28
2022-09-28T14:55:55.631Z,97316.25
2022-09-28T14:58:29.879Z,97312.00
2022-09-28T15:01:20.374Z,97305.97
2022-09-28T15:03:55.648Z,97312.25
2022-09-28T15:06:25.474Z,97318.28
2022-09-28T15:08:52.911Z,97314.66
2022-09-28T15:11:25.477Z,97307.59
2022-09-28T15:14:07.757Z,97323.00
2022-09-28T15:16:34.616Z,97318.47
2022-09-28T15:19:38.705Z,97331.66
2022-09-28T15:22:21.067Z,97323.66
2022-09-28T15:25:02.413Z,97322.38
2022-09-28T15:27:38.704Z,97327.88
2022-09-28T15:30:34.489Z,97327.56
2022-09-28T15:33:21.609Z,97315.84
2022-09-28T15:36:05.926Z,97328.34
2022-09-28T15:38:34.760Z,97320.31
2022-09-28T15:41:06.995Z,97329.22
2022-09-28T15:43:38.504Z,97333.69
2022-09-28T15:46:16.241Z,97311.66
2022-09-28T15:49:04.682Z,97333.09
2022-09-28T15:51:44.867Z,97297.06
2022-09-28T15:54:24.869Z,97330.53
2022-09-28T15:57:03.090Z,97323.78
2022-09-28T15:59:38.240Z,97336.19
2022-09-28T16:02:22.632Z,97329.34
2022-09-28T16:04:54.175Z,97335.47
2022-09-28T16:07:38.600Z,97334.72
2022-09-28T16:10:15.386Z,97339.44
2022-09-28T16:12:54.594Z,97327.97
2022-09-28T16:15:39.994Z,97323.66
2022-09-28T16:18:20.893Z,97334.16
2022-09-28T16:20:57.345Z,97301.56
2022-09-28T16:23:33.756Z,97332.03
2022-09-28T16:26:16.098Z,97338.66
2022-09-28T16:28:46.048Z,97333.19
2022-09-28T16:31:12.667Z,97334.84
2022-09-28T16:34:11.698Z,97340.91
2022-09-28T16:39:29.512Z,97324.50
2022-09-28T16:42:03.137Z,97345.88
2022-09-28T16:44:37.045Z,97332.22
2022-09-28T16:47:03.690Z,97349.22
2022-09-28T16:49:32.286Z,97327.00
2022-09-28T16:51:59.567Z,97322.28
2022-09-28T16:54:44.771Z,97324.50
2022-09-28T16:57:13.597Z,97334.94
2022-09-28T16:59:40.482Z,97340.72
2022-09-28T17:05:12.951Z,97293.81
2022-09-28T17:07:41.440Z,97317.41
2022-09-28T17:10:17.554Z,97340.97
2022-09-28T17:12:44.369Z,97331.69
2022-09-28T17:15:13.579Z,97322.34
2022-09-28T17:17:45.298Z,97345.94
2022-09-28T17:20:23.026Z,97341.00
2022-09-28T17:22:51.091Z,97324.00
2022-09-28T17:25:18.325Z,97316.31
2022-09-28T17:27:48.195Z,97354.16
2022-09-28T17:30:16.502Z,97355.53
2022-09-28T17:32:47.220Z,97353.63
2022-09-28T17:35:26.246Z,97335.50
2022-09-28T17:37:53.201Z,97329.69
2022-09-28T17:40:22.703Z,97350.28
2022-09-28T17:42:54.311Z,97338.72
2022-09-28T17:45:20.939Z,97346.41
2022-09-28T17:47:47.602Z,97345.59
2022-09-28T17:50:17.402Z,97357.91
2022-09-28T17:52:44.146Z,97320.03
2022-09-28T17:55:12.322Z,97357.09
2022-09-28T17:57:39.133Z,97328.84
2022-09-28T18:00:06.494Z,97346.13
2022-09-28T18:02:33.701Z,97322.84
2022-09-28T18:05:12.611Z,97324.16
2022-09-28T18:07:41.419Z,97333.75
2022-09-28T18:10:14.995Z,97359.81
2022-09-28T18:12:43.131Z,97357.34
2022-09-28T18:15:10.843Z,97385.28
2022-09-28T18:17:38.749Z,97390.38
2022-09-28T18:20:26.054Z,97397.13
2022-09-28T18:22:52.865Z,97394.84
2022-09-28T18:25:19.605Z,97396.41
2022-09-28T18:27:47.947Z,97400.72
2022-09-28T18:30:19.739Z,97393.00
2022-09-28T18:32:49.540Z,97391.06
2022-09-28T18:35:22.642Z,97381.88
2022-09-28T18:37:50.058Z,97358.75
2022-09-28T18:40:18.166Z,97412.59
2022-09-28T18:42:45.814Z,97397.84
2022-09-28T18:45:12.452Z,97394.56
2022-09-28T18:47:41.144Z,97387.69
2022-09-28T18:50:13.043Z,97393.00
2022-09-28T18:52:40.497Z,97406.16
2022-09-28T18:55:08.704Z,97389.41
2022-09-28T18:57:35.409Z,97385.03
2022-09-28T19:00:06.493Z,97392.53
2022-09-28T19:02:33.221Z,97396.34
2022-09-28T19:04:59.925Z,97392.44
2022-09-28T19:07:27.735Z,97402.34
2022-09-28T19:09:54.355Z,97418.22
2022-09-28T19:12:21.076Z,97413.22
2022-09-28T19:14:49.956Z,97403.06
2022-09-28T19:17:17.931Z,97389.78
2022-09-28T19:19:47.602Z,97403.78
2022-09-28T19:22:14.175Z,97411.41
2022-09-28T19:24:40.879Z,97393.16
2022-09-28T19:27:07.456Z,97375.09
2022-09-28T19:29:34.500Z,97384.44
2022-09-28T19:32:01.316Z,97389.63
2022-09-28T19:34:30.172Z,97386.19
2022-09-28T19:36:57.323Z,97396.13
2022-09-28T19:39:24.005Z,97391.34
2022-09-28T19:41:54.349Z,97383.13
2022-09-28T19:44:25.867Z,97411.81
2022-09-28T19:47:13.150Z,97426.09
2022-09-28T19:49:40.732Z,97416.19
2022-09-28T19:52:19.288Z,97423.78
2022-09-28T19:54:59.241Z,97416.78
2022-09-28T19:57:28.555Z,97418.00
2022-09-28T20:00:01.713Z,97424.31
2022-09-28T20:02:29.247Z,97411.13
2022-09-28T20:04:56.112Z,97412.16
2022-09-28T20:07:25.323Z,97419.28
2022-09-28T20:09:52.077Z,97415.41
2022-09-28T20:12:18.977Z,97419.44
2022-09-28T20:14:45.584Z,97416.34
2022-09-28T20:17:15.329Z,97441.66
2022-09-28T20:19:42.336Z,97393.44
2022-09-28T20:22:08.953Z,97426.44
2022-09-28T20:24:35.549Z,97420.66
2022-09-28T20:27:02.572Z,97425.25
2022-09-28T20:29:31.807Z,97432.16
2022-09-28T20:32:08.049Z,97416.13
2022-09-28T20:34:35.039Z,97417.41
2022-09-28T20:37:02.792Z,97441.31
2022-09-28T20:39:29.632Z,97436.22
2022-09-28T20:41:56.272Z,97417.41
2022-09-28T20:44:22.965Z,97428.16
2022-09-28T20:46:51.324Z,97440.69
2022-09-28T20:49:18.104Z,97434.63
2022-09-28T20:51:47.328Z,97455.63
2022-09-28T20:54:13.896Z,97430.56
2022-09-28T20:56:40.530Z,97455.25
2022-09-28T20:59:08.944Z,97452.75
2022-09-28T21:01:35.887Z,97462.94
2022-09-28T21:04:04.911Z,97465.72
2022-09-28T21:06:36.965Z,97434.63
2022-09-28T21:09:09.466Z,97459.69
2022-09-28T21:11:39.814Z,97432.19
2022-09-28T21:14:10.365Z,97451.50
2022-09-28T21:16:37.872Z,97462.69
2022-09-28T21:19:04.667Z,97456.94
2022-09-28T21:21:31.436Z,97432.72
2022-09-28T21:23:59.448Z,97431.19
2022-09-28T21:26:29.112Z,97430.09
2022-09-28T21:29:01.379Z,97421.59
2022-09-28T21:31:31.466Z,97420.13
2022-09-28T21:33:58.736Z,97450.94
2022-09-28T21:36:25.853Z,97459.50
2022-09-28T21:38:54.235Z,97418.97
2022-09-28T21:41:21.036Z,97430.34
2022-09-28T21:43:47.636Z,97463.56
2022-09-28T21:46:17.888Z,97473.97
2022-09-28T21:48:45.132Z,97447.81
2022-09-28T21:51:17.958Z,97446.47
2022-09-28T21:53:44.745Z,97436.81
2022-09-28T21:56:12.694Z,97464.25
2022-09-28T21:58:40.182Z,97447.44
2022-09-28T22:01:16.090Z,97463.78
2022-09-28T22:03:44.710Z,97465.91
2022-09-28T22:06:13.096Z,97449.63
2022-09-28T22:08:41.396Z,97451.00
2022-09-28T22:11:22.277Z,97432.28
2022-09-28T22:13:55.024Z,97475.50
2022-09-28T22:16:24.674Z,97476.69
2022-09-28T22:18:51.891Z,97438.19
2022-09-28T22:21:30.034Z,97461.19
2022-09-28T22:24:05.017Z,97460.50
2022-09-28T22:26:33.654Z,97459.84
2022-09-28T22:29:05.116Z,97435.63
2022-09-28T22:31:34.550Z,97455.41
2022-09-28T22:34:02.478Z,97436.72
2022-09-28T22:36:31.133Z,97483.84
2022-09-28T22:39:02.564Z,97492.41
2022-09-28T22:41:29.876Z,97471.78
2022-09-28T22:43:56.711Z,97496.06
2022-09-28T22:46:26.491Z,97490.44
2022-09-28T22:48:58.422Z,97474.75
2022-09-28T22:51:37.005Z,97475.91
2022-09-28T22:54:03.856Z,97474.75
2022-09-28T22:56:31.005Z,97487.63
2022-09-28T22:58:57.944Z,97495.63
2022-09-28T23:01:27.639Z,97484.91
2022-09-28T23:03:56.642Z,97495.91
2022-09-28T23:06:26.644Z,97496.66
2022-09-28T23:08:53.518Z,97493.31
2022-09-28T23:11:20.649Z,97457.16
2022-09-28T23:13:52.218Z,97478.38
2022-09-28T23:16:19.655Z,97502.00
2022-09-28T23:18:49.280Z,97497.63
2022-09-28T23:21:23.394Z,97495.59
2022-09-28T23:23:59.011Z,97510.13
2022-09-28T23:26:30.046Z,97493.91
2022-09-28T23:28:57.897Z,97507.97
2022-09-28T23:31:28.086Z,97499.94
2022-09-28T23:34:03.621Z,97495.16
2022-09-28T23:36:38.312Z,97474.09
2022-09-28T23:39:07.555Z,97487.47
2022-09-28T23:41:34.174Z,97453.31
2022-09-28T23:44:00.918Z,97474.00
2022-09-28T23:46:27.606Z,97464.00
2022-09-28T23:48:55.585Z,97473.50
2022-09-28T23:51:24.930Z,97464.66
2022-09-28T23:53:51.559Z,97475.00
2022-09-28T23:56:19.701Z,97468.44
2022-09-28T23:58:46.264Z,97450.44
